createdAt,value
2017-03-21T00:00:58.114Z,0
2017-03-21T00:01:57.787Z,0
2017-03-21T00:02:58.091Z,0
2017-03-21T00:03:57.763Z,0
2017-03-21T00:04:58.058Z,0
2017-03-21T00:05:57.410Z,0
2017-03-21T00:06:57.708Z,0
2017-03-21T00:07:58.007Z,0
2017-03-21T00:08:58.036Z,0
2017-03-21T00:09:57.672Z,0
2017-03-21T00:10:57.953Z,0
2017-03-21T00:11:57.950Z,0
2017-03-21T00:12:57.627Z,0
2017-03-21T00:13:57.916Z,0
2017-03-21T00:14:57.901Z,0
2017-03-21T00:15:57.903Z,0
2017-03-21T00:16:57.870Z,0
2017-03-21T00:17:57.550Z,0
2017-03-21T00:18:57.525Z,0
2017-03-21T00:19:57.820Z,0
2017-03-21T00:20:57.809Z,0
2017-03-21T00:21:57.786Z,0
2017-03-21T00:22:57.468Z,0
2017-03-21T00:23:57.475Z,0
2017-03-21T00:24:57.434Z,0
2017-03-21T00:25:57.722Z,0
2017-03-21T00:26:57.710Z,0
2017-03-21T00:27:57.382Z,0
2017-03-21T00:28:57.685Z,0
2017-03-21T00:29:57.663Z,0
2017-03-21T00:30:57.331Z,0
2017-03-21T00:31:57.631Z,0
2017-03-21T00:32:57.306Z,0
2017-03-21T00:33:56.983Z,0
2017-03-21T00:34:57.592Z,0
2017-03-21T00:35:57.258Z,0
2017-03-21T00:36:57.555Z,0
2017-03-21T00:37:57.536Z,0
2017-03-21T00:38:57.214Z,0
2017-03-21T00:39:57.186Z,0
2017-03-21T00:40:57.170Z,0
2017-03-21T00:41:57.210Z,0
2017-03-21T00:42:57.156Z,0
2017-03-21T00:43:57.455Z,0
2017-03-21T00:44:57.438Z,0
2017-03-21T00:45:57.096Z,0
2017-03-21T00:46:57.388Z,0
2017-03-21T00:47:57.384Z,0
2017-03-21T00:48:57.356Z,0
2017-03-21T00:49:57.347Z,0
2017-03-21T00:50:57.042Z,0
2017-03-21T00:51:57.008Z,0
2017-03-21T00:52:57.313Z,0
2017-03-21T00:53:57.285Z,0
2017-03-21T00:54:56.973Z,0
2017-03-21T00:55:57.271Z,0
2017-03-21T00:56:56.915Z,0
2017-03-21T00:57:56.289Z,0
2017-03-21T00:58:57.212Z,0
2017-03-21T00:59:57.193Z,0
2017-03-21T01:00:56.859Z,0
2017-03-21T01:01:56.841Z,0
2017-03-21T01:02:57.131Z,0
2017-03-21T01:03:57.124Z,0
2017-03-21T01:04:57.106Z,0
2017-03-21T01:05:57.083Z,0
2017-03-21T01:06:57.065Z,0
2017-03-21T01:07:57.060Z,0
2017-03-21T01:08:57.035Z,0
2017-03-21T01:09:57.027Z,0
2017-03-21T01:10:57.000Z,0
2017-03-21T01:11:56.665Z,0
2017-03-21T01:12:56.975Z,0
2017-03-21T01:13:56.640Z,0
2017-03-21T01:14:56.941Z,0
2017-03-21T01:15:56.920Z,0
2017-03-21T01:16:56.901Z,0
2017-03-21T01:17:56.575Z,0
2017-03-21T01:18:56.878Z,0
2017-03-21T01:19:56.856Z,0
2017-03-21T01:20:56.833Z,0
2017-03-21T01:21:57.019Z,0
2017-03-21T01:22:56.895Z,0
2017-03-21T01:23:56.815Z,0
2017-03-21T01:24:56.473Z,0
2017-03-21T01:25:56.770Z,0
2017-03-21T01:26:56.461Z,0
2017-03-21T01:27:56.414Z,0
2017-03-21T01:28:56.725Z,0
2017-03-21T01:29:56.690Z,0
2017-03-21T01:30:56.676Z,0
2017-03-21T01:31:56.653Z,0
2017-03-21T01:32:56.650Z,0
2017-03-21T01:33:56.619Z,0
2017-03-21T01:34:56.610Z,0
2017-03-21T01:35:56.589Z,0
2017-03-21T01:36:56.249Z,0
2017-03-21T01:37:56.556Z,0
2017-03-21T01:38:56.226Z,0
2017-03-21T01:39:56.522Z,0
2017-03-21T01:40:56.506Z,0
2017-03-21T01:41:56.169Z,0
2017-03-21T01:42:56.483Z,0
2017-03-21T01:43:56.486Z,0
2017-03-21T01:44:56.443Z,0
2017-03-21T01:45:56.109Z,0
2017-03-21T01:46:55.777Z,0
2017-03-21T01:47:55.768Z,0
2017-03-21T01:48:56.074Z,0
2017-03-21T01:49:56.370Z,0
2017-03-21T01:50:56.022Z,0
2017-03-21T01:51:56.320Z,0
2017-03-21T01:52:56.318Z,0
2017-03-21T01:53:56.299Z,0
2017-03-21T01:54:56.282Z,0
2017-03-21T01:55:55.948Z,0
2017-03-21T01:56:56.243Z,0
2017-03-21T01:57:56.279Z,0
2017-03-21T01:58:55.913Z,0
2017-03-21T01:59:56.201Z,0
2017-03-21T02:00:55.857Z,0
2017-03-21T02:01:56.160Z,0
2017-03-21T02:02:56.159Z,0
2017-03-21T02:03:56.131Z,0
2017-03-21T02:04:56.112Z,0
2017-03-21T02:05:55.785Z,0
2017-03-21T02:06:55.754Z,0
2017-03-21T02:07:55.749Z,0
2017-03-21T02:08:55.734Z,0
2017-03-21T02:09:56.031Z,0
2017-03-21T02:10:56.014Z,0
2017-03-21T02:11:55.996Z,0
2017-03-21T02:12:55.981Z,0
2017-03-21T02:13:55.969Z,0
2017-03-21T02:14:55.649Z,0
2017-03-21T02:15:55.933Z,0
2017-03-21T02:16:55.598Z,0
2017-03-21T02:17:55.913Z,0
2017-03-21T02:18:55.584Z,0
2017-03-21T02:19:55.867Z,0
2017-03-21T02:20:55.845Z,0
2017-03-21T02:21:55.832Z,0
2017-03-21T02:22:55.819Z,0
2017-03-21T02:23:55.798Z,0
2017-03-21T02:24:55.783Z,0
2017-03-21T02:25:55.771Z,0
2017-03-21T02:26:54.811Z,0
2017-03-21T02:27:55.423Z,0
2017-03-21T02:28:55.409Z,0
2017-03-21T02:29:55.711Z,0
2017-03-21T02:30:55.369Z,0
2017-03-21T02:31:55.352Z,0
2017-03-21T02:32:55.654Z,0
2017-03-21T02:33:55.635Z,0
2017-03-21T02:34:55.300Z,0
2017-03-21T02:35:55.596Z,0
2017-03-21T02:36:55.580Z,0
2017-03-21T02:37:55.567Z,0
2017-03-21T02:38:55.554Z,0
2017-03-21T02:39:55.529Z,0
2017-03-21T02:40:55.515Z,0
2017-03-21T02:41:55.197Z,0
2017-03-21T02:42:55.495Z,0
2017-03-21T02:43:55.473Z,0
2017-03-21T02:44:55.461Z,0
2017-03-21T02:45:55.436Z,0
2017-03-21T02:46:55.106Z,0
2017-03-21T02:47:55.448Z,0
2017-03-21T02:48:55.387Z,0
2017-03-21T02:49:55.379Z,0
2017-03-21T02:50:55.357Z,0
2017-03-21T02:51:55.336Z,0
2017-03-21T02:52:55.010Z,0
2017-03-21T02:53:55.319Z,0
2017-03-21T02:54:55.292Z,0
2017-03-21T02:55:54.972Z,0
2017-03-21T02:56:55.251Z,0
2017-03-21T02:57:55.245Z,0
2017-03-21T02:58:54.911Z,0
2017-03-21T02:59:55.207Z,0
2017-03-21T03:00:55.200Z,0
2017-03-21T03:01:55.209Z,0
2017-03-21T03:02:55.157Z,0
2017-03-21T03:03:55.161Z,0
2017-03-21T03:04:55.134Z,0
2017-03-21T03:05:54.486Z,0
2017-03-21T03:06:54.816Z,0
2017-03-21T03:07:54.771Z,0
2017-03-21T03:08:54.439Z,0
2017-03-21T03:09:55.055Z,0
2017-03-21T03:10:55.029Z,0
2017-03-21T03:11:55.014Z,0
2017-03-21T03:12:54.684Z,0
2017-03-21T03:13:54.982Z,0
2017-03-21T03:14:54.961Z,0
2017-03-21T03:15:54.337Z,0
2017-03-21T03:16:54.924Z,0
2017-03-21T03:17:54.963Z,0
2017-03-21T03:18:54.901Z,0
2017-03-21T03:19:54.880Z,0
2017-03-21T03:20:54.863Z,0
2017-03-21T03:21:55.456Z,0
2017-03-21T03:22:54.535Z,0
2017-03-21T03:23:54.823Z,0
2017-03-21T03:24:55.002Z,0
2017-03-21T03:25:54.790Z,0
2017-03-21T03:26:54.457Z,0
2017-03-21T03:27:54.453Z,0
2017-03-21T03:28:54.442Z,0
2017-03-21T03:29:54.730Z,0
2017-03-21T03:30:54.717Z,0
2017-03-21T03:31:54.088Z,0
2017-03-21T03:32:54.679Z,0
2017-03-21T03:33:54.663Z,0
2017-03-21T03:34:54.660Z,0
2017-03-21T03:35:54.314Z,0
2017-03-21T03:36:54.301Z,0
2017-03-21T03:37:54.609Z,0
2017-03-21T03:38:54.582Z,0
2017-03-21T03:39:54.248Z,0
2017-03-21T03:40:54.238Z,0
2017-03-21T03:41:54.530Z,0
2017-03-21T03:42:53.901Z,0
2017-03-21T03:43:54.201Z,0
2017-03-21T03:44:54.500Z,0
2017-03-21T03:45:53.841Z,0
2017-03-21T03:46:54.133Z,0
2017-03-21T03:47:54.432Z,0
2017-03-21T03:48:54.106Z,0
2017-03-21T03:49:54.455Z,0
2017-03-21T03:50:54.075Z,0
2017-03-21T03:51:53.744Z,0
2017-03-21T03:52:54.373Z,0
2017-03-21T03:53:54.031Z,0
2017-03-21T03:54:54.017Z,0
2017-03-21T03:55:54.325Z,0
2017-03-21T03:56:53.662Z,0
2017-03-21T03:57:53.975Z,0
2017-03-21T03:58:53.950Z,0
2017-03-21T03:59:53.934Z,0
2017-03-21T04:00:54.229Z,0
2017-03-21T04:01:53.574Z,0
2017-03-21T04:02:53.882Z,0
2017-03-21T04:03:53.868Z,0
2017-03-21T04:04:54.165Z,0
2017-03-21T04:05:54.146Z,0
2017-03-21T04:06:53.850Z,0
2017-03-21T04:07:54.121Z,0
2017-03-21T04:08:53.785Z,0
2017-03-21T04:09:53.763Z,0
2017-03-21T04:10:54.058Z,0
2017-03-21T04:11:53.725Z,0
2017-03-21T04:12:53.708Z,0
2017-03-21T04:13:53.706Z,0
2017-03-21T04:14:53.991Z,0
2017-03-21T04:15:53.656Z,0
2017-03-21T04:16:53.955Z,0
2017-03-21T04:17:53.634Z,0
2017-03-21T04:18:53.947Z,0
2017-03-21T04:19:53.598Z,0
2017-03-21T04:20:53.895Z,0
2017-03-21T04:21:53.569Z,0
2017-03-21T04:22:53.269Z,0
2017-03-21T04:23:53.849Z,0
2017-03-21T04:24:53.204Z,0
2017-03-21T04:25:53.800Z,0
2017-03-21T04:26:53.792Z,0
2017-03-21T04:27:53.778Z,0
2017-03-21T04:28:53.768Z,0
2017-03-21T04:29:53.425Z,0
2017-03-21T04:30:53.718Z,0
2017-03-21T04:31:53.707Z,0
2017-03-21T04:32:53.378Z,0
2017-03-21T04:33:53.682Z,0
2017-03-21T04:34:53.662Z,0
2017-03-21T04:35:53.628Z,0
2017-03-21T04:36:53.619Z,0
2017-03-21T04:37:53.299Z,0
2017-03-21T04:38:53.611Z,0
2017-03-21T04:39:53.580Z,0
2017-03-21T04:40:53.563Z,0
2017-03-21T04:41:53.223Z,0
2017-03-21T04:42:53.529Z,0
2017-03-21T04:43:53.518Z,0
2017-03-21T04:44:53.540Z,0
2017-03-21T04:45:53.470Z,0
2017-03-21T04:46:53.452Z,0
2017-03-21T04:47:53.437Z,0
2017-03-21T04:48:53.121Z,0
2017-03-21T04:49:53.085Z,0
2017-03-21T04:50:53.380Z,0
2017-03-21T04:51:53.369Z,0
2017-03-21T04:52:53.352Z,0
2017-03-21T04:53:53.068Z,0
2017-03-21T04:54:53.039Z,0
2017-03-21T04:55:52.677Z,0
2017-03-21T04:56:52.647Z,0
2017-03-21T04:57:53.272Z,0
2017-03-21T04:58:53.250Z,0
2017-03-21T04:59:53.238Z,0
2017-03-21T05:00:52.897Z,0
2017-03-21T05:01:53.203Z,0
2017-03-21T05:02:52.910Z,0
2017-03-21T05:03:53.183Z,0
2017-03-21T05:04:52.836Z,0
2017-03-21T05:05:53.137Z,0
2017-03-21T05:06:53.111Z,0
2017-03-21T05:07:53.099Z,0
2017-03-21T05:08:53.086Z,0
2017-03-21T05:09:53.061Z,0
2017-03-21T05:10:53.042Z,0
2017-03-21T05:11:53.026Z,0
2017-03-21T05:12:53.019Z,0
2017-03-21T05:13:53.009Z,0
2017-03-21T05:14:52.984Z,0
2017-03-21T05:15:52.662Z,0
2017-03-21T05:16:52.326Z,0
2017-03-21T05:17:52.941Z,0
2017-03-21T05:18:52.963Z,0
2017-03-21T05:19:52.891Z,0
2017-03-21T05:20:52.875Z,0
2017-03-21T05:21:52.857Z,0
2017-03-21T05:22:52.751Z,0
2017-03-21T05:23:52.832Z,0
2017-03-21T05:24:52.817Z,0
2017-03-21T05:25:52.785Z,0
2017-03-21T05:26:52.774Z,0
2017-03-21T05:27:52.772Z,0
2017-03-21T05:28:52.745Z,0
2017-03-21T05:29:52.725Z,0
2017-03-21T05:30:52.709Z,0
2017-03-21T05:31:52.690Z,0
2017-03-21T05:32:52.681Z,0
2017-03-21T05:33:52.667Z,0
2017-03-21T05:34:52.330Z,0
2017-03-21T05:35:52.624Z,0
2017-03-21T05:36:52.293Z,0
2017-03-21T05:37:52.298Z,0
2017-03-21T05:38:52.582Z,0
2017-03-21T05:40:02.817Z,0
2017-03-21T05:40:52.536Z,5
2017-03-21T05:41:52.536Z,5
2017-03-21T05:42:52.505Z,5
2017-03-21T05:43:52.495Z,5
2017-03-21T05:44:52.479Z,5
2017-03-21T05:45:52.504Z,5
2017-03-21T05:46:52.435Z,5
2017-03-21T05:47:52.434Z,5
2017-03-21T05:48:52.098Z,10
2017-03-21T05:49:52.391Z,10
2017-03-21T05:50:52.379Z,15
2017-03-21T05:51:52.371Z,15
2017-03-21T05:52:52.366Z,15
2017-03-21T05:53:52.342Z,15
2017-03-21T05:54:52.320Z,15
2017-03-21T05:55:52.294Z,15
2017-03-21T05:56:52.273Z,15
2017-03-21T05:57:51.955Z,15
2017-03-21T05:58:51.946Z,10
2017-03-21T05:59:52.224Z,10
2017-03-21T06:00:52.211Z,15
2017-03-21T06:01:52.193Z,15
2017-03-21T06:02:52.182Z,15
2017-03-21T06:03:52.163Z,20
2017-03-21T06:04:51.837Z,20
2017-03-21T06:05:52.121Z,25
2017-03-21T06:06:52.109Z,25
2017-03-21T06:07:52.090Z,25
2017-03-21T06:08:52.078Z,30
2017-03-21T06:09:52.060Z,30
2017-03-21T06:10:52.046Z,35
2017-03-21T06:11:51.708Z,35
2017-03-21T06:12:52.021Z,40
2017-03-21T06:13:51.991Z,45
2017-03-21T06:14:51.975Z,50
2017-03-21T06:15:51.637Z,50
2017-03-21T06:16:51.335Z,50
2017-03-21T06:17:51.314Z,50
2017-03-21T06:18:51.923Z,55
2017-03-21T06:19:51.585Z,55
2017-03-21T06:20:50.950Z,55
2017-03-21T06:21:51.541Z,55
2017-03-21T06:22:51.848Z,55
2017-03-21T06:23:51.827Z,55
2017-03-21T06:24:51.503Z,55
2017-03-21T06:25:51.474Z,50
2017-03-21T06:26:51.487Z,50
2017-03-21T06:27:51.756Z,45
2017-03-21T06:28:51.747Z,45
2017-03-21T06:29:51.726Z,45
2017-03-21T06:30:51.716Z,50
2017-03-21T06:31:51.693Z,50
2017-03-21T06:32:51.681Z,60
2017-03-21T06:33:51.670Z,60
2017-03-21T06:34:51.643Z,65
2017-03-21T06:35:51.309Z,65
2017-03-21T06:36:51.623Z,70
2017-03-21T06:37:51.602Z,70
2017-03-21T06:38:51.265Z,75
2017-03-21T06:39:51.251Z,75
2017-03-21T06:40:51.550Z,80
2017-03-21T06:41:51.526Z,85
2017-03-21T06:42:51.521Z,85
2017-03-21T06:43:51.494Z,85
2017-03-21T06:44:51.160Z,80
2017-03-21T06:45:50.831Z,80
2017-03-21T06:46:51.446Z,85
2017-03-21T06:47:51.437Z,90
2017-03-21T06:48:51.414Z,85
2017-03-21T06:49:51.095Z,75
2017-03-21T06:50:51.374Z,70
2017-03-21T06:51:51.364Z,65
2017-03-21T06:52:51.352Z,65
2017-03-21T06:53:51.338Z,65
2017-03-21T06:54:51.308Z,75
2017-03-21T06:55:51.331Z,75
2017-03-21T06:56:51.278Z,90
2017-03-21T06:57:51.282Z,105
2017-03-21T06:58:50.939Z,105
2017-03-21T06:59:50.622Z,100
2017-03-21T07:00:51.215Z,95
2017-03-21T07:01:51.210Z,110
2017-03-21T07:02:50.903Z,125
2017-03-21T07:03:51.170Z,130
2017-03-21T07:04:51.149Z,130
2017-03-21T07:05:50.823Z,155
2017-03-21T07:06:51.113Z,130
2017-03-21T07:07:51.114Z,85
2017-03-21T07:08:51.097Z,75
2017-03-21T07:09:51.074Z,75
2017-03-21T07:10:50.734Z,70
2017-03-21T07:11:51.033Z,75
2017-03-21T07:12:51.028Z,90
2017-03-21T07:13:51.018Z,95
2017-03-21T07:14:50.671Z,110
2017-03-21T07:15:50.979Z,125
2017-03-21T07:16:50.953Z,135
2017-03-21T07:17:50.947Z,150
2017-03-21T07:18:50.930Z,165
2017-03-21T07:19:50.902Z,175
2017-03-21T07:20:50.576Z,185
2017-03-21T07:21:50.872Z,190
2017-03-21T07:22:51.069Z,195
2017-03-21T07:23:50.545Z,190
2017-03-21T07:24:50.516Z,185
2017-03-21T07:25:50.500Z,180
2017-03-21T07:26:50.790Z,185
2017-03-21T07:27:50.790Z,185
2017-03-21T07:28:50.451Z,185
2017-03-21T07:29:50.433Z,180
2017-03-21T07:30:50.730Z,175
2017-03-21T07:31:50.727Z,170
2017-03-21T07:32:50.403Z,165
2017-03-21T07:33:50.691Z,165
2017-03-21T07:34:50.401Z,165
2017-03-21T07:35:50.652Z,160
2017-03-21T07:36:50.322Z,160
2017-03-21T07:37:50.633Z,165
2017-03-21T07:38:50.322Z,170
2017-03-21T07:39:50.635Z,185
2017-03-21T07:40:50.593Z,195
2017-03-21T07:41:50.573Z,200
2017-03-21T07:42:50.590Z,200
2017-03-21T07:43:50.537Z,200
2017-03-21T07:44:50.206Z,195
2017-03-21T07:45:50.182Z,195
2017-03-21T07:46:50.165Z,200
2017-03-21T07:47:50.479Z,195
2017-03-21T07:48:50.141Z,195
2017-03-21T07:49:49.808Z,190
2017-03-21T07:50:50.416Z,190
2017-03-21T07:51:50.406Z,185
2017-03-21T07:52:50.400Z,185
2017-03-21T07:53:50.389Z,185
2017-03-21T07:54:50.366Z,185
2017-03-21T07:55:49.731Z,190
2017-03-21T07:56:50.334Z,195
2017-03-21T07:57:50.054Z,195
2017-03-21T07:58:50.307Z,195
2017-03-21T07:59:49.980Z,195
2017-03-21T08:00:50.272Z,185
2017-03-21T08:01:50.250Z,175
2017-03-21T08:02:50.242Z,170
2017-03-21T08:03:49.911Z,170
2017-03-21T08:04:50.202Z,180
2017-03-21T08:05:50.193Z,195
2017-03-21T08:06:50.172Z,205
2017-03-21T08:07:50.171Z,215
2017-03-21T08:08:50.151Z,220
2017-03-21T08:09:50.140Z,210
2017-03-21T08:10:50.121Z,205
2017-03-21T08:11:50.096Z,205
2017-03-21T08:12:49.457Z,205
2017-03-21T08:13:49.750Z,200
2017-03-21T08:14:49.752Z,200
2017-03-21T08:15:50.047Z,200
2017-03-21T08:16:50.031Z,215
2017-03-21T08:17:49.701Z,225
2017-03-21T08:18:50.002Z,255
2017-03-21T08:19:49.981Z,335
2017-03-21T08:20:49.968Z,450
2017-03-21T08:21:49.962Z,370
2017-03-21T08:22:49.668Z,360
2017-03-21T08:23:49.926Z,465
2017-03-21T08:24:49.597Z,590
2017-03-21T08:25:49.900Z,420
2017-03-21T08:26:49.875Z,395
2017-03-21T08:27:49.867Z,390
2017-03-21T08:28:49.866Z,340
2017-03-21T08:29:49.836Z,430
2017-03-21T08:30:49.814Z,380
2017-03-21T08:31:49.487Z,375
2017-03-21T08:32:49.798Z,505
2017-03-21T08:33:49.786Z,710
2017-03-21T08:34:49.764Z,210
2017-03-21T08:35:49.753Z,330
2017-03-21T08:36:49.744Z,260
2017-03-21T08:37:49.742Z,310
2017-03-21T08:38:49.712Z,340
2017-03-21T08:39:49.707Z,315
2017-03-21T08:40:49.383Z,340
2017-03-21T08:41:49.365Z,330
2017-03-21T08:42:49.350Z,300
2017-03-21T08:43:49.375Z,325
2017-03-21T08:44:49.672Z,275
2017-03-21T08:45:49.316Z,285
2017-03-21T08:46:49.614Z,375
2017-03-21T08:47:49.294Z,355
2017-03-21T08:48:49.593Z,330
2017-03-21T08:49:49.276Z,300
2017-03-21T08:50:49.562Z,345
2017-03-21T08:51:49.233Z,275
2017-03-21T08:52:49.546Z,280
2017-03-21T08:53:49.533Z,250
2017-03-21T08:54:49.207Z,255
2017-03-21T08:55:49.502Z,265
2017-03-21T08:56:49.486Z,270
2017-03-21T08:57:49.158Z,290
2017-03-21T08:58:49.465Z,320
2017-03-21T08:59:49.160Z,310
2017-03-21T09:00:49.443Z,340
2017-03-21T09:01:49.429Z,310
2017-03-21T09:02:49.104Z,300
2017-03-21T09:03:49.098Z,315
2017-03-21T09:04:48.757Z,335
2017-03-21T09:05:49.377Z,330
2017-03-21T09:06:49.359Z,280
2017-03-21T09:07:49.348Z,260
2017-03-21T09:08:49.015Z,270
2017-03-21T09:09:49.005Z,285
2017-03-21T09:10:48.995Z,285
2017-03-21T09:11:48.974Z,265
2017-03-21T09:12:49.280Z,255
2017-03-21T09:13:49.267Z,235
2017-03-21T09:14:49.247Z,190
2017-03-21T09:15:48.926Z,155
2017-03-21T09:16:49.220Z,150
2017-03-21T09:17:49.213Z,160
2017-03-21T09:18:48.885Z,150
2017-03-21T09:19:48.882Z,140
2017-03-21T09:20:49.178Z,140
2017-03-21T09:21:49.168Z,145
2017-03-21T09:22:49.035Z,150
2017-03-21T09:23:49.132Z,155
2017-03-21T09:24:49.163Z,150
2017-03-21T09:25:49.107Z,145
2017-03-21T09:26:49.096Z,135
2017-03-21T09:27:48.772Z,110
2017-03-21T09:28:49.071Z,85
2017-03-21T09:29:48.734Z,70
2017-03-21T09:30:49.044Z,70
2017-03-21T09:31:49.029Z,70
2017-03-21T09:32:49.084Z,75
2017-03-21T09:33:48.686Z,80
2017-03-21T09:34:48.981Z,95
2017-03-21T09:35:48.962Z,130
2017-03-21T09:36:48.951Z,155
2017-03-21T09:37:48.359Z,155
2017-03-21T09:38:48.931Z,120
2017-03-21T09:39:48.909Z,90
2017-03-21T09:40:48.903Z,80
2017-03-21T09:41:48.877Z,70
2017-03-21T09:42:48.870Z,65
2017-03-21T09:43:48.848Z,75
2017-03-21T09:44:48.519Z,65
2017-03-21T09:45:48.821Z,60
2017-03-21T09:46:48.802Z,55
2017-03-21T09:47:48.804Z,65
2017-03-21T09:48:48.807Z,80
2017-03-21T09:49:48.761Z,80
2017-03-21T09:50:48.750Z,100
2017-03-21T09:51:48.730Z,120
2017-03-21T09:52:48.724Z,95
2017-03-21T09:53:48.706Z,55
2017-03-21T09:54:48.693Z,45
2017-03-21T09:55:48.360Z,40
2017-03-21T09:56:48.661Z,50
2017-03-21T09:57:48.646Z,65
2017-03-21T09:58:48.317Z,80
2017-03-21T09:59:48.299Z,110
2017-03-21T10:00:48.602Z,110
2017-03-21T10:01:48.586Z,90
2017-03-21T10:02:48.569Z,60
2017-03-21T10:03:48.273Z,40
2017-03-21T10:04:47.601Z,35
2017-03-21T10:05:48.533Z,35
2017-03-21T10:06:48.508Z,30
2017-03-21T10:07:48.178Z,20
2017-03-21T10:08:48.479Z,20
2017-03-21T10:09:48.467Z,25
2017-03-21T10:10:48.455Z,25
2017-03-21T10:11:48.435Z,25
2017-03-21T10:12:48.108Z,30
2017-03-21T10:13:48.088Z,30
2017-03-21T10:14:48.398Z,35
2017-03-21T10:15:48.373Z,45
2017-03-21T10:16:48.366Z,50
2017-03-21T10:17:48.346Z,55
2017-03-21T10:18:48.357Z,45
2017-03-21T10:19:47.374Z,45
2017-03-21T10:20:48.301Z,50
2017-03-21T10:21:48.278Z,50
2017-03-21T10:22:48.285Z,50
2017-03-21T10:23:47.946Z,50
2017-03-21T10:24:48.261Z,55
2017-03-21T10:25:48.220Z,65
2017-03-21T10:26:48.193Z,70
2017-03-21T10:27:48.184Z,70
2017-03-21T10:28:48.170Z,80
2017-03-21T10:29:47.521Z,85
2017-03-21T10:30:47.512Z,85
2017-03-21T10:31:47.487Z,80
2017-03-21T10:32:48.095Z,80
2017-03-21T10:33:47.772Z,75
2017-03-21T10:34:47.123Z,60
2017-03-21T10:35:48.050Z,55
2017-03-21T10:36:47.443Z,60
2017-03-21T10:37:48.010Z,90
2017-03-21T10:38:48.014Z,130
2017-03-21T10:39:47.668Z,180
2017-03-21T10:40:47.957Z,195
2017-03-21T10:41:47.633Z,175
2017-03-21T10:42:47.934Z,160
2017-03-21T10:43:47.287Z,150
2017-03-21T10:44:47.584Z,140
2017-03-21T10:45:47.570Z,135
2017-03-21T10:46:47.551Z,140
2017-03-21T10:47:47.849Z,145
2017-03-21T10:48:47.836Z,145
2017-03-21T10:49:47.809Z,155
2017-03-21T10:50:47.480Z,170
2017-03-21T10:51:47.776Z,195
2017-03-21T10:52:47.763Z,225
2017-03-21T10:53:47.436Z,235
2017-03-21T10:54:47.417Z,230
2017-03-21T10:55:47.431Z,220
2017-03-21T10:56:47.700Z,215
2017-03-21T10:57:47.679Z,250
2017-03-21T10:58:47.041Z,340
2017-03-21T10:59:47.654Z,645
2017-03-21T11:00:47.633Z,595
2017-03-21T11:01:47.298Z,630
2017-03-21T11:02:47.603Z,680
2017-03-21T11:03:47.587Z,680
2017-03-21T11:04:47.259Z,915
2017-03-21T11:05:47.246Z,635
2017-03-21T11:06:47.225Z,760
2017-03-21T11:07:47.524Z,665
2017-03-21T11:08:47.506Z,730
2017-03-21T11:09:47.183Z,525
2017-03-21T11:10:47.169Z,460
2017-03-21T11:11:47.160Z,405
2017-03-21T11:12:47.452Z,305
2017-03-21T11:13:47.446Z,250
2017-03-21T11:14:47.118Z,205
2017-03-21T11:15:47.102Z,175
2017-03-21T11:16:47.400Z,185
2017-03-21T11:17:47.086Z,165
2017-03-21T11:18:47.377Z,135
2017-03-21T11:19:47.050Z,105
2017-03-21T11:20:47.027Z,140
2017-03-21T11:21:47.037Z,250
2017-03-21T11:22:47.212Z,805
2017-03-21T11:23:47.303Z,775
2017-03-21T11:24:47.289Z,1360
2017-03-21T11:25:46.968Z,1145
2017-03-21T11:26:47.265Z,1145
2017-03-21T11:27:46.948Z,840
2017-03-21T11:28:46.928Z,515
2017-03-21T11:29:46.600Z,445
2017-03-21T11:30:47.214Z,430
2017-03-21T11:31:46.891Z,340
2017-03-21T11:32:46.885Z,310
2017-03-21T11:33:46.872Z,315
2017-03-21T11:34:47.161Z,295
2017-03-21T11:35:47.152Z,285
2017-03-21T11:36:46.831Z,285
2017-03-21T11:37:47.135Z,285
2017-03-21T11:38:47.122Z,305
2017-03-21T11:39:47.114Z,310
2017-03-21T11:40:46.774Z,305
2017-03-21T11:41:47.082Z,335
2017-03-21T11:42:46.786Z,460
2017-03-21T11:43:46.749Z,910
2017-03-21T11:44:47.040Z,1040
2017-03-21T11:45:46.721Z,565
2017-03-21T11:46:46.724Z,445
2017-03-21T11:47:46.705Z,520
2017-03-21T11:48:46.700Z,675
2017-03-21T11:49:46.673Z,870
2017-03-21T11:50:46.976Z,1175
2017-03-21T11:51:46.965Z,1225
2017-03-21T11:52:46.645Z,1245
2017-03-21T11:53:46.624Z,1315
2017-03-21T11:54:46.613Z,1175
2017-03-21T11:55:46.608Z,1210
2017-03-21T11:56:46.590Z,1385
2017-03-21T11:57:46.269Z,1380
2017-03-21T11:58:46.579Z,1380
2017-03-21T11:59:46.886Z,1275
2017-03-21T12:00:46.568Z,1120
2017-03-21T12:01:46.550Z,855
2017-03-21T12:02:46.546Z,885
2017-03-21T12:03:46.567Z,990
2017-03-21T12:04:46.533Z,745
2017-03-21T12:05:46.522Z,770
2017-03-21T12:06:46.515Z,950
2017-03-21T12:07:46.514Z,920
2017-03-21T12:08:46.508Z,670
2017-03-21T12:09:46.813Z,1145
2017-03-21T12:10:46.491Z,1195
2017-03-21T12:11:46.183Z,1065
2017-03-21T12:12:46.491Z,825
2017-03-21T12:13:46.780Z,990
2017-03-21T12:14:46.474Z,725
2017-03-21T12:15:46.792Z,775
2017-03-21T12:16:46.770Z,250
2017-03-21T12:17:46.776Z,170
2017-03-21T12:18:46.447Z,110
2017-03-21T12:19:46.441Z,75
2017-03-21T12:20:46.746Z,55
2017-03-21T12:21:46.430Z,45
2017-03-21T12:22:46.415Z,35
2017-03-21T12:23:46.722Z,30
2017-03-21T12:24:46.406Z,40
2017-03-21T12:25:46.082Z,55
2017-03-21T12:26:46.847Z,55
2017-03-21T12:27:46.408Z,55
2017-03-21T12:28:46.075Z,65
2017-03-21T12:29:46.360Z,85
2017-03-21T12:30:46.670Z,110
2017-03-21T12:31:46.643Z,145
2017-03-21T12:32:46.017Z,170
2017-03-21T12:33:46.329Z,225
2017-03-21T12:34:46.617Z,390
2017-03-21T12:35:46.303Z,490
2017-03-21T12:36:46.287Z,560
2017-03-21T12:37:46.282Z,620
2017-03-21T12:38:46.568Z,565
2017-03-21T12:39:46.247Z,535
2017-03-21T12:40:46.556Z,615
2017-03-21T12:41:45.912Z,1130
2017-03-21T12:42:46.557Z,1000
2017-03-21T12:43:46.526Z,1105
2017-03-21T12:44:46.213Z,1430
2017-03-21T12:45:46.190Z,995
2017-03-21T12:46:46.171Z,1015
2017-03-21T12:47:45.853Z,1130
2017-03-21T12:48:45.556Z,850
2017-03-21T12:49:45.851Z,850
2017-03-21T12:50:46.146Z,690
2017-03-21T12:51:46.443Z,625
2017-03-21T12:52:45.803Z,805
2017-03-21T12:53:45.808Z,980
2017-03-21T12:54:45.790Z,660
2017-03-21T12:55:46.357Z,715
2017-03-21T12:56:45.769Z,950
2017-03-21T12:57:46.392Z,1175
2017-03-21T12:58:46.073Z,730
2017-03-21T12:59:45.750Z,705
2017-03-21T13:00:46.616Z,600
2017-03-21T13:01:45.735Z,635
2017-03-21T13:02:45.722Z,625
2017-03-21T13:03:46.355Z,645
2017-03-21T13:04:45.724Z,595
2017-03-21T13:05:45.388Z,530
2017-03-21T13:06:46.323Z,500
2017-03-21T13:07:46.001Z,470
2017-03-21T13:08:46.319Z,450
2017-03-21T13:09:45.984Z,440
2017-03-21T13:10:45.974Z,440
2017-03-21T13:11:46.290Z,480
2017-03-21T13:12:46.282Z,570
2017-03-21T13:13:46.265Z,530
2017-03-21T13:14:46.258Z,520
2017-03-21T13:15:46.251Z,500
2017-03-21T13:16:46.255Z,495
2017-03-21T13:17:45.610Z,505
2017-03-21T13:18:46.224Z,570
2017-03-21T13:19:45.601Z,660
2017-03-21T13:20:45.892Z,1195
2017-03-21T13:21:45.564Z,940
2017-03-21T13:22:46.077Z,730
2017-03-21T13:23:46.193Z,600
2017-03-21T13:24:46.172Z,500
2017-03-21T13:25:46.048Z,440
2017-03-21T13:26:45.524Z,420
2017-03-21T13:27:46.149Z,335
2017-03-21T13:28:45.826Z,305
2017-03-21T13:29:46.134Z,265
2017-03-21T13:30:45.861Z,220
2017-03-21T13:31:46.114Z,200
2017-03-21T13:32:46.103Z,220
2017-03-21T13:33:45.468Z,285
2017-03-21T13:34:46.094Z,370
2017-03-21T13:35:46.122Z,380
2017-03-21T13:36:46.064Z,405
2017-03-21T13:37:45.739Z,405
2017-03-21T13:38:46.045Z,400
2017-03-21T13:39:46.031Z,395
2017-03-21T13:40:46.035Z,385
2017-03-21T13:41:46.014Z,395
2017-03-21T13:42:45.382Z,395
2017-03-21T13:43:46.009Z,395
2017-03-21T13:44:45.992Z,385
2017-03-21T13:45:45.973Z,360
2017-03-21T13:46:45.958Z,340
2017-03-21T13:47:45.638Z,335
2017-03-21T13:48:45.330Z,340
2017-03-21T13:49:45.928Z,345
2017-03-21T13:50:45.918Z,360
2017-03-21T13:51:45.917Z,375
2017-03-21T13:52:45.612Z,370
2017-03-21T13:53:45.890Z,365
2017-03-21T13:54:45.566Z,375
2017-03-21T13:55:45.553Z,395
2017-03-21T13:56:45.544Z,380
2017-03-21T13:57:45.857Z,365
2017-03-21T13:58:45.213Z,395
2017-03-21T13:59:45.518Z,365
2017-03-21T14:00:45.825Z,360
2017-03-21T14:01:45.813Z,350
2017-03-21T14:02:45.799Z,340
2017-03-21T14:03:45.465Z,345
2017-03-21T14:04:45.457Z,355
2017-03-21T14:05:45.450Z,375
2017-03-21T14:06:45.749Z,375
2017-03-21T14:07:45.426Z,385
2017-03-21T14:08:45.412Z,445
2017-03-21T14:09:45.418Z,450
2017-03-21T14:10:45.404Z,450
2017-03-21T14:11:45.073Z,395
2017-03-21T14:12:45.055Z,390
2017-03-21T14:13:45.676Z,425
2017-03-21T14:14:45.670Z,360